sensor_id;sensor_type;location;lat;lon;timestamp;P1;durP1;ratioP1;P2;durP2;ratioP2
74471;SDS011;62920;53.572;10.050;2022-12-13T00:01:14;35.60;;;14.25;;
74471;SDS011;62920;53.572;10.050;2022-12-13T00:03:40;35.60;;;13.48;;
74471;SDS011;62920;53.572;10.050;2022-12-13T00:06:07;34.75;;;14.07;;
74471;SDS011;62920;53.572;10.050;2022-12-13T00:11:03;34.00;;;11.88;;
74471;SDS011;62920;53.572;10.050;2022-12-13T00:13:30;34.10;;;14.38;;
74471;SDS011;62920;53.572;10.050;2022-12-13T00:15:56;35.78;;;13.50;;
74471;SDS011;62920;53.572;10.050;2022-12-13T00:18:23;31.55;;;12.63;;
74471;SDS011;62920;53.572;10.050;2022-12-13T00:20:48;31.02;;;13.30;;
74471;SDS011;62920;53.572;10.050;2022-12-13T00:23:14;33.28;;;13.63;;
74471;SDS011;62920;53.572;10.050;2022-12-13T00:25:39;34.47;;;13.45;;
74471;SDS011;62920;53.572;10.050;2022-12-13T00:28:04;31.88;;;12.85;;
74471;SDS011;62920;53.572;10.050;2022-12-13T00:30:30;34.83;;;14.15;;
74471;SDS011;62920;53.572;10.050;2022-12-13T00:32:55;38.42;;;14.45;;
74471;SDS011;62920;53.572;10.050;2022-12-13T00:35:21;33.58;;;13.27;;
74471;SDS011;62920;53.572;10.050;2022-12-13T00:37:46;33.63;;;13.38;;
74471;SDS011;62920;53.572;10.050;2022-12-13T00:40:11;35.72;;;13.38;;
74471;SDS011;62920;53.572;10.050;2022-12-13T00:42:37;33.00;;;12.65;;
74471;SDS011;62920;53.572;10.050;2022-12-13T00:45:02;32.55;;;14.30;;
74471;SDS011;62920;53.572;10.050;2022-12-13T00:47:28;35.20;;;13.57;;
74471;SDS011;62920;53.572;10.050;2022-12-13T00:49:53;35.75;;;13.30;;
74471;SDS011;62920;53.572;10.050;2022-12-13T00:52:19;37.03;;;13.55;;
74471;SDS011;62920;53.572;10.050;2022-12-13T00:54:44;31.67;;;13.30;;
74471;SDS011;62920;53.572;10.050;2022-12-13T00:57:09;36.22;;;13.93;;
74471;SDS011;62920;53.572;10.050;2022-12-13T00:59:35;34.22;;;13.20;;
74471;SDS011;62920;53.572;10.050;2022-12-13T01:02:00;39.63;;;13.85;;
74471;SDS011;62920;53.572;10.050;2022-12-13T01:04:25;36.45;;;13.35;;
74471;SDS011;62920;53.572;10.050;2022-12-13T01:06:51;31.70;;;14.75;;
74471;SDS011;62920;53.572;10.050;2022-12-13T01:09:19;36.03;;;13.38;;
74471;SDS011;62920;53.572;10.050;2022-12-13T01:11:46;35.58;;;12.75;;
74471;SDS011;62920;53.572;10.050;2022-12-13T01:14:12;34.83;;;13.10;;
74471;SDS011;62920;53.572;10.050;2022-12-13T01:16:37;36.08;;;13.75;;
74471;SDS011;62920;53.572;10.050;2022-12-13T01:19:03;36.38;;;13.88;;
74471;SDS011;62920;53.572;10.050;2022-12-13T01:21:28;36.50;;;13.73;;
74471;SDS011;62920;53.572;10.050;2022-12-13T01:23:54;32.28;;;12.05;;
74471;SDS011;62920;53.572;10.050;2022-12-13T01:26:26;38.15;;;14.13;;
74471;SDS011;62920;53.572;10.050;2022-12-13T01:28:51;33.72;;;13.23;;
74471;SDS011;62920;53.572;10.050;2022-12-13T01:31:17;35.50;;;13.40;;
74471;SDS011;62920;53.572;10.050;2022-12-13T01:33:44;31.83;;;13.20;;
74471;SDS011;62920;53.572;10.050;2022-12-13T01:36:12;35.13;;;13.65;;
74471;SDS011;62920;53.572;10.050;2022-12-13T01:38:39;35.10;;;11.95;;
74471;SDS011;62920;53.572;10.050;2022-12-13T01:41:04;38.80;;;13.20;;
74471;SDS011;62920;53.572;10.050;2022-12-13T01:45:55;32.53;;;13.32;;
74471;SDS011;62920;53.572;10.050;2022-12-13T01:48:23;34.45;;;13.80;;
74471;SDS011;62920;53.572;10.050;2022-12-13T01:50:52;33.88;;;13.52;;
74471;SDS011;62920;53.572;10.050;2022-12-13T01:53:20;37.83;;;14.80;;
74471;SDS011;62920;53.572;10.050;2022-12-13T01:55:49;32.55;;;13.20;;
74471;SDS011;62920;53.572;10.050;2022-12-13T01:58:17;36.25;;;13.57;;
74471;SDS011;62920;53.572;10.050;2022-12-13T02:00:43;34.97;;;13.63;;
74471;SDS011;62920;53.572;10.050;2022-12-13T02:03:09;38.42;;;13.77;;
74471;SDS011;62920;53.572;10.050;2022-12-13T02:05:37;37.97;;;14.48;;
74471;SDS011;62920;53.572;10.050;2022-12-13T02:08:04;38.35;;;15.68;;
74471;SDS011;62920;53.572;10.050;2022-12-13T02:10:32;33.95;;;12.77;;
74471;SDS011;62920;53.572;10.050;2022-12-13T02:12:57;43.13;;;14.50;;
74471;SDS011;62920;53.572;10.050;2022-12-13T02:15:23;37.70;;;13.77;;
74471;SDS011;62920;53.572;10.050;2022-12-13T02:26:27;38.28;;;14.63;;
74471;SDS011;62920;53.572;10.050;2022-12-13T02:32:13;36.78;;;12.70;;
74471;SDS011;62920;53.572;10.050;2022-12-13T02:37:29;38.95;;;15.00;;
74471;SDS011;62920;53.572;10.050;2022-12-13T02:40:12;35.13;;;13.45;;
74471;SDS011;62920;53.572;10.050;2022-12-13T02:45:28;33.60;;;13.15;;
74471;SDS011;62920;53.572;10.050;2022-12-13T02:47:56;32.97;;;12.90;;
74471;SDS011;62920;53.572;10.050;2022-12-13T02:50:22;31.98;;;12.48;;
74471;SDS011;62920;53.572;10.050;2022-12-13T02:52:48;38.42;;;13.35;;
74471;SDS011;62920;53.572;10.050;2022-12-13T02:55:15;34.60;;;13.55;;
74471;SDS011;62920;53.572;10.050;2022-12-13T02:57:42;32.67;;;14.13;;
74471;SDS011;62920;53.572;10.050;2022-12-13T03:11:17;34.85;;;14.35;;
74471;SDS011;62920;53.572;10.050;2022-12-13T03:13:50;31.50;;;12.73;;
74471;SDS011;62920;53.572;10.050;2022-12-13T03:19:13;34.47;;;13.52;;
74471;SDS011;62920;53.572;10.050;2022-12-13T03:21:39;33.08;;;12.40;;
74471;SDS011;62920;53.572;10.050;2022-12-13T03:24:07;33.58;;;12.90;;
74471;SDS011;62920;53.572;10.050;2022-12-13T03:26:32;31.92;;;14.10;;
74471;SDS011;62920;53.572;10.050;2022-12-13T03:28:58;33.13;;;13.13;;
74471;SDS011;62920;53.572;10.050;2022-12-13T03:31:23;33.10;;;12.20;;
74471;SDS011;62920;53.572;10.050;2022-12-13T03:33:49;34.10;;;12.45;;
74471;SDS011;62920;53.572;10.050;2022-12-13T03:36:15;32.05;;;11.48;;
74471;SDS011;62920;53.572;10.050;2022-12-13T03:38:40;31.35;;;12.57;;
74471;SDS011;62920;53.572;10.050;2022-12-13T03:41:10;39.10;;;13.98;;
74471;SDS011;62920;53.572;10.050;2022-12-13T03:43:37;37.90;;;13.40;;
74471;SDS011;62920;53.572;10.050;2022-12-13T03:46:03;35.08;;;12.00;;
74471;SDS011;62920;53.572;10.050;2022-12-13T03:48:29;33.28;;;12.38;;
74471;SDS011;62920;53.572;10.050;2022-12-13T03:50:55;33.20;;;12.50;;
74471;SDS011;62920;53.572;10.050;2022-12-13T03:53:21;29.30;;;11.63;;
74471;SDS011;62920;53.572;10.050;2022-12-13T03:55:47;29.63;;;12.70;;
74471;SDS011;62920;53.572;10.050;2022-12-13T03:58:13;32.65;;;12.45;;
74471;SDS011;62920;53.572;10.050;2022-12-13T04:00:38;29.10;;;11.77;;
74471;SDS011;62920;53.572;10.050;2022-12-13T04:03:09;30.20;;;12.32;;
74471;SDS011;62920;53.572;10.050;2022-12-13T04:05:36;34.90;;;12.13;;
74471;SDS011;62920;53.572;10.050;2022-12-13T04:08:01;30.90;;;11.88;;
74471;SDS011;62920;53.572;10.050;2022-12-13T04:10:26;34.38;;;13.10;;
74471;SDS011;62920;53.572;10.050;2022-12-13T04:12:52;31.70;;;12.30;;
74471;SDS011;62920;53.572;10.050;2022-12-13T04:15:37;32.45;;;12.75;;
74471;SDS011;62920;53.572;10.050;2022-12-13T04:18:02;35.20;;;12.80;;
74471;SDS011;62920;53.572;10.050;2022-12-13T04:20:28;33.75;;;13.10;;
74471;SDS011;62920;53.572;10.050;2022-12-13T04:22:53;30.10;;;12.52;;
74471;SDS011;62920;53.572;10.050;2022-12-13T04:25:18;31.73;;;11.88;;
74471;SDS011;62920;53.572;10.050;2022-12-13T04:27:44;29.52;;;11.57;;
74471;SDS011;62920;53.572;10.050;2022-12-13T04:30:10;32.33;;;12.07;;
74471;SDS011;62920;53.572;10.050;2022-12-13T04:32:36;31.08;;;12.57;;
74471;SDS011;62920;53.572;10.050;2022-12-13T04:35:01;28.65;;;11.40;;
74471;SDS011;62920;53.572;10.050;2022-12-13T04:37:27;29.30;;;12.13;;
74471;SDS011;62920;53.572;10.050;2022-12-13T04:39:53;28.25;;;11.70;;
74471;SDS011;62920;53.572;10.050;2022-12-13T04:42:18;30.17;;;11.75;;
74471;SDS011;62920;53.572;10.050;2022-12-13T04:44:44;33.53;;;11.57;;
74471;SDS011;62920;53.572;10.050;2022-12-13T04:47:09;32.05;;;11.27;;
74471;SDS011;62920;53.572;10.050;2022-12-13T04:49:35;30.55;;;12.07;;
74471;SDS011;62920;53.572;10.050;2022-12-13T04:52:00;30.45;;;12.40;;
74471;SDS011;62920;53.572;10.050;2022-12-13T04:54:26;32.88;;;10.73;;
74471;SDS011;62920;53.572;10.050;2022-12-13T04:56:52;32.83;;;12.50;;
74471;SDS011;62920;53.572;10.050;2022-12-13T04:59:17;33.08;;;11.27;;
74471;SDS011;62920;53.572;10.050;2022-12-13T05:01:42;30.17;;;12.82;;
74471;SDS011;62920;53.572;10.050;2022-12-13T05:04:08;32.30;;;12.32;;
74471;SDS011;62920;53.572;10.050;2022-12-13T05:06:33;29.83;;;10.25;;
74471;SDS011;62920;53.572;10.050;2022-12-13T05:08:59;28.67;;;11.02;;
74471;SDS011;62920;53.572;10.050;2022-12-13T05:11:25;27.60;;;10.75;;
74471;SDS011;62920;53.572;10.050;2022-12-13T05:13:50;28.17;;;11.35;;
74471;SDS011;62920;53.572;10.050;2022-12-13T05:16:16;31.55;;;11.68;;
74471;SDS011;62920;53.572;10.050;2022-12-13T05:18:41;27.17;;;10.43;;
74471;SDS011;62920;53.572;10.050;2022-12-13T05:21:08;28.52;;;11.00;;
74471;SDS011;62920;53.572;10.050;2022-12-13T05:23:34;31.27;;;11.10;;
74471;SDS011;62920;53.572;10.050;2022-12-13T05:25:59;31.65;;;12.07;;
74471;SDS011;62920;53.572;10.050;2022-12-13T05:28:26;25.65;;;10.52;;
74471;SDS011;62920;53.572;10.050;2022-12-13T05:30:53;29.48;;;11.60;;
74471;SDS011;62920;53.572;10.050;2022-12-13T05:33:20;28.98;;;11.48;;
74471;SDS011;62920;53.572;10.050;2022-12-13T05:35:46;28.83;;;11.10;;
74471;SDS011;62920;53.572;10.050;2022-12-13T05:38:11;35.17;;;11.73;;
74471;SDS011;62920;53.572;10.050;2022-12-13T05:40:37;27.52;;;10.63;;
74471;SDS011;62920;53.572;10.050;2022-12-13T05:43:02;31.42;;;12.02;;
74471;SDS011;62920;53.572;10.050;2022-12-13T05:45:29;25.80;;;9.65;;
74471;SDS011;62920;53.572;10.050;2022-12-13T05:47:54;31.55;;;11.40;;
74471;SDS011;62920;53.572;10.050;2022-12-13T05:50:20;25.08;;;10.65;;
74471;SDS011;62920;53.572;10.050;2022-12-13T05:52:45;28.45;;;10.85;;
74471;SDS011;62920;53.572;10.050;2022-12-13T05:55:11;29.80;;;10.68;;
74471;SDS011;62920;53.572;10.050;2022-12-13T05:57:36;40.15;;;10.23;;
74471;SDS011;62920;53.572;10.050;2022-12-13T06:00:03;30.35;;;10.70;;
74471;SDS011;62920;53.572;10.050;2022-12-13T06:02:30;33.10;;;11.23;;
74471;SDS011;62920;53.572;10.050;2022-12-13T06:04:55;28.63;;;10.60;;
74471;SDS011;62920;53.572;10.050;2022-12-13T06:07:21;31.08;;;11.77;;
74471;SDS011;62920;53.572;10.050;2022-12-13T06:09:46;26.15;;;10.68;;
74471;SDS011;62920;53.572;10.050;2022-12-13T06:12:12;30.13;;;10.38;;
74471;SDS011;62920;53.572;10.050;2022-12-13T06:14:37;29.90;;;11.75;;
74471;SDS011;62920;53.572;10.050;2022-12-13T06:17:02;26.88;;;10.30;;
74471;SDS011;62920;53.572;10.050;2022-12-13T06:19:28;26.95;;;9.65;;
74471;SDS011;62920;53.572;10.050;2022-12-13T06:21:54;34.15;;;10.70;;
74471;SDS011;62920;53.572;10.050;2022-12-13T06:24:20;32.75;;;11.50;;
74471;SDS011;62920;53.572;10.050;2022-12-13T06:26:47;28.75;;;10.98;;
74471;SDS011;62920;53.572;10.050;2022-12-13T06:29:17;28.63;;;10.82;;
74471;SDS011;62920;53.572;10.050;2022-12-13T06:31:44;23.75;;;9.93;;
74471;SDS011;62920;53.572;10.050;2022-12-13T06:34:09;27.13;;;10.68;;
74471;SDS011;62920;53.572;10.050;2022-12-13T06:36:34;25.95;;;10.25;;
74471;SDS011;62920;53.572;10.050;2022-12-13T06:39:03;26.40;;;10.10;;
74471;SDS011;62920;53.572;10.050;2022-12-13T06:41:29;27.85;;;10.23;;
74471;SDS011;62920;53.572;10.050;2022-12-13T06:43:55;27.23;;;10.77;;
74471;SDS011;62920;53.572;10.050;2022-12-13T06:46:20;26.30;;;9.55;;
74471;SDS011;62920;53.572;10.050;2022-12-13T06:48:45;29.00;;;10.20;;
74471;SDS011;62920;53.572;10.050;2022-12-13T06:51:11;28.70;;;10.27;;
74471;SDS011;62920;53.572;10.050;2022-12-13T06:53:37;30.60;;;11.00;;
74471;SDS011;62920;53.572;10.050;2022-12-13T06:56:04;29.13;;;9.75;;
74471;SDS011;62920;53.572;10.050;2022-12-13T06:58:33;28.08;;;10.77;;
74471;SDS011;62920;53.572;10.050;2022-12-13T07:00:59;26.42;;;10.27;;
74471;SDS011;62920;53.572;10.050;2022-12-13T07:03:26;40.92;;;11.30;;
74471;SDS011;62920;53.572;10.050;2022-12-13T07:05:51;33.10;;;11.43;;
74471;SDS011;62920;53.572;10.050;2022-12-13T07:08:17;29.08;;;10.75;;
74471;SDS011;62920;53.572;10.050;2022-12-13T07:10:42;31.15;;;10.70;;
74471;SDS011;62920;53.572;10.050;2022-12-13T07:13:07;29.15;;;10.85;;
74471;SDS011;62920;53.572;10.050;2022-12-13T07:15:32;39.35;;;11.18;;
74471;SDS011;62920;53.572;10.050;2022-12-13T07:17:58;28.00;;;10.73;;
74471;SDS011;62920;53.572;10.050;2022-12-13T07:20:23;26.52;;;10.38;;
74471;SDS011;62920;53.572;10.050;2022-12-13T07:22:48;30.00;;;11.80;;
74471;SDS011;62920;53.572;10.050;2022-12-13T07:25:20;28.52;;;10.60;;
74471;SDS011;62920;53.572;10.050;2022-12-13T07:27:46;27.20;;;10.77;;
74471;SDS011;62920;53.572;10.050;2022-12-13T07:30:11;23.95;;;9.32;;
74471;SDS011;62920;53.572;10.050;2022-12-13T07:32:37;32.25;;;10.52;;
74471;SDS011;62920;53.572;10.050;2022-12-13T07:35:02;27.60;;;10.40;;
74471;SDS011;62920;53.572;10.050;2022-12-13T07:37:28;28.40;;;11.38;;
74471;SDS011;62920;53.572;10.050;2022-12-13T07:39:53;27.33;;;9.52;;
74471;SDS011;62920;53.572;10.050;2022-12-13T07:42:18;30.10;;;10.95;;
74471;SDS011;62920;53.572;10.050;2022-12-13T07:44:44;32.53;;;11.10;;
74471;SDS011;62920;53.572;10.050;2022-12-13T07:47:09;30.80;;;11.00;;
74471;SDS011;62920;53.572;10.050;2022-12-13T07:49:34;26.85;;;9.10;;
74471;SDS011;62920;53.572;10.050;2022-12-13T07:52:00;28.77;;;11.20;;
74471;SDS011;62920;53.572;10.050;2022-12-13T07:54:25;28.65;;;10.43;;
74471;SDS011;62920;53.572;10.050;2022-12-13T07:56:50;34.17;;;11.50;;
74471;SDS011;62920;53.572;10.050;2022-12-13T07:59:16;31.20;;;10.10;;
74471;SDS011;62920;53.572;10.050;2022-12-13T08:01:41;31.60;;;10.38;;
74471;SDS011;62920;53.572;10.050;2022-12-13T08:04:06;32.08;;;10.77;;
74471;SDS011;62920;53.572;10.050;2022-12-13T08:06:36;29.90;;;10.23;;
74471;SDS011;62920;53.572;10.050;2022-12-13T08:09:02;23.65;;;9.45;;
74471;SDS011;62920;53.572;10.050;2022-12-13T08:11:28;29.10;;;10.30;;
74471;SDS011;62920;53.572;10.050;2022-12-13T08:13:53;24.42;;;9.30;;
74471;SDS011;62920;53.572;10.050;2022-12-13T08:16:19;25.10;;;9.85;;
74471;SDS011;62920;53.572;10.050;2022-12-13T08:18:44;27.27;;;11.38;;
74471;SDS011;62920;53.572;10.050;2022-12-13T08:21:11;31.80;;;11.18;;
74471;SDS011;62920;53.572;10.050;2022-12-13T08:23:37;27.33;;;10.93;;
74471;SDS011;62920;53.572;10.050;2022-12-13T08:26:03;25.08;;;8.93;;
74471;SDS011;62920;53.572;10.050;2022-12-13T08:28:29;27.85;;;10.45;;
74471;SDS011;62920;53.572;10.050;2022-12-13T08:31:00;34.80;;;11.27;;
74471;SDS011;62920;53.572;10.050;2022-12-13T08:33:27;33.88;;;11.68;;
74471;SDS011;62920;53.572;10.050;2022-12-13T08:35:52;28.08;;;10.13;;
74471;SDS011;62920;53.572;10.050;2022-12-13T08:38:18;28.52;;;10.48;;
74471;SDS011;62920;53.572;10.050;2022-12-13T08:40:43;31.00;;;10.27;;
74471;SDS011;62920;53.572;10.050;2022-12-13T08:43:09;32.80;;;10.93;;
74471;SDS011;62920;53.572;10.050;2022-12-13T08:45:34;25.90;;;9.80;;
74471;SDS011;62920;53.572;10.050;2022-12-13T08:48:00;29.80;;;10.52;;
74471;SDS011;62920;53.572;10.050;2022-12-13T08:50:26;34.97;;;10.73;;
74471;SDS011;62920;53.572;10.050;2022-12-13T08:52:52;29.90;;;10.48;;
74471;SDS011;62920;53.572;10.050;2022-12-13T08:55:18;29.65;;;11.10;;
74471;SDS011;62920;53.572;10.050;2022-12-13T08:57:44;36.83;;;10.27;;
74471;SDS011;62920;53.572;10.050;2022-12-13T09:00:10;28.83;;;11.38;;
74471;SDS011;62920;53.572;10.050;2022-12-13T09:02:37;27.95;;;10.70;;
74471;SDS011;62920;53.572;10.050;2022-12-13T09:05:03;30.15;;;11.65;;
74471;SDS011;62920;53.572;10.050;2022-12-13T09:07:29;26.02;;;10.02;;
74471;SDS011;62920;53.572;10.050;2022-12-13T09:09:54;30.58;;;10.88;;
74471;SDS011;62920;53.572;10.050;2022-12-13T09:12:19;23.85;;;11.05;;
74471;SDS011;62920;53.572;10.050;2022-12-13T09:14:45;26.88;;;10.68;;
74471;SDS011;62920;53.572;10.050;2022-12-13T09:17:11;28.17;;;11.07;;
74471;SDS011;62920;53.572;10.050;2022-12-13T09:19:37;26.70;;;9.20;;
74471;SDS011;62920;53.572;10.050;2022-12-13T09:22:03;29.05;;;11.30;;
74471;SDS011;62920;53.572;10.050;2022-12-13T09:24:29;28.55;;;10.82;;
74471;SDS011;62920;53.572;10.050;2022-12-13T09:26:54;26.88;;;10.50;;
74471;SDS011;62920;53.572;10.050;2022-12-13T09:29:20;28.33;;;10.43;;
74471;SDS011;62920;53.572;10.050;2022-12-13T09:31:45;22.52;;;9.90;;
74471;SDS011;62920;53.572;10.050;2022-12-13T09:34:11;27.25;;;10.55;;
74471;SDS011;62920;53.572;10.050;2022-12-13T09:36:36;27.35;;;9.43;;
74471;SDS011;62920;53.572;10.050;2022-12-13T09:39:02;33.22;;;10.32;;
74471;SDS011;62920;53.572;10.050;2022-12-13T09:43:59;25.65;;;9.45;;
74471;SDS011;62920;53.572;10.050;2022-12-13T09:46:29;26.00;;;9.95;;
74471;SDS011;62920;53.572;10.050;2022-12-13T09:49:00;33.58;;;10.48;;
74471;SDS011;62920;53.572;10.050;2022-12-13T09:51:27;23.73;;;9.23;;
74471;SDS011;62920;53.572;10.050;2022-12-13T09:53:54;25.83;;;10.15;;
74471;SDS011;62920;53.572;10.050;2022-12-13T09:56:20;25.75;;;10.02;;
74471;SDS011;62920;53.572;10.050;2022-12-13T09:58:47;28.92;;;10.25;;
74471;SDS011;62920;53.572;10.050;2022-12-13T10:01:13;28.15;;;11.00;;
74471;SDS011;62920;53.572;10.050;2022-12-13T10:03:40;22.85;;;9.82;;
74471;SDS011;62920;53.572;10.050;2022-12-13T10:06:13;29.33;;;11.00;;
74471;SDS011;62920;53.572;10.050;2022-12-13T10:08:44;23.90;;;9.63;;
74471;SDS011;62920;53.572;10.050;2022-12-13T10:11:14;28.67;;;9.77;;
74471;SDS011;62920;53.572;10.050;2022-12-13T10:16:17;25.30;;;9.38;;
74471;SDS011;62920;53.572;10.050;2022-12-13T10:18:44;28.52;;;10.20;;
74471;SDS011;62920;53.572;10.050;2022-12-13T10:21:30;29.30;;;10.00;;
74471;SDS011;62920;53.572;10.050;2022-12-13T10:24:06;27.02;;;10.57;;
74471;SDS011;62920;53.572;10.050;2022-12-13T10:26:38;27.33;;;10.65;;
74471;SDS011;62920;53.572;10.050;2022-12-13T10:29:04;24.58;;;10.77;;
74471;SDS011;62920;53.572;10.050;2022-12-13T10:31:41;25.90;;;9.32;;
74471;SDS011;62920;53.572;10.050;2022-12-13T10:34:25;29.25;;;10.25;;
74471;SDS011;62920;53.572;10.050;2022-12-13T10:36:51;24.52;;;9.95;;
74471;SDS011;62920;53.572;10.050;2022-12-13T10:39:18;25.25;;;8.85;;
74471;SDS011;62920;53.572;10.050;2022-12-13T10:42:14;26.30;;;10.00;;
74471;SDS011;62920;53.572;10.050;2022-12-13T10:44:40;27.50;;;9.85;;
74471;SDS011;62920;53.572;10.050;2022-12-13T10:49:37;28.50;;;10.45;;
74471;SDS011;62920;53.572;10.050;2022-12-13T10:52:06;31.08;;;10.68;;
74471;SDS011;62920;53.572;10.050;2022-12-13T10:54:43;26.58;;;10.10;;
74471;SDS011;62920;53.572;10.050;2022-12-13T10:57:09;30.63;;;9.40;;
74471;SDS011;62920;53.572;10.050;2022-12-13T10:59:36;24.45;;;10.07;;
74471;SDS011;62920;53.572;10.050;2022-12-13T11:04:53;25.30;;;9.93;;
74471;SDS011;62920;53.572;10.050;2022-12-13T11:09:48;36.85;;;10.00;;
74471;SDS011;62920;53.572;10.050;2022-12-13T11:12:14;24.65;;;9.45;;
74471;SDS011;62920;53.572;10.050;2022-12-13T11:14:47;27.73;;;9.77;;
74471;SDS011;62920;53.572;10.050;2022-12-13T11:17:18;24.17;;;9.63;;
74471;SDS011;62920;53.572;10.050;2022-12-13T11:19:47;29.40;;;10.32;;
74471;SDS011;62920;53.572;10.050;2022-12-13T11:22:21;22.92;;;9.68;;
74471;SDS011;62920;53.572;10.050;2022-12-13T11:24:54;30.30;;;9.02;;
74471;SDS011;62920;53.572;10.050;2022-12-13T11:27:27;30.98;;;10.65;;
74471;SDS011;62920;53.572;10.050;2022-12-13T11:30:20;29.85;;;10.85;;
74471;SDS011;62920;53.572;10.050;2022-12-13T11:38:25;21.38;;;9.40;;
74471;SDS011;62920;53.572;10.050;2022-12-13T11:40:59;23.42;;;9.73;;
74471;SDS011;62920;53.572;10.050;2022-12-13T11:43:42;23.50;;;9.48;;
74471;SDS011;62920;53.572;10.050;2022-12-13T11:46:16;22.52;;;9.25;;
74471;SDS011;62920;53.572;10.050;2022-12-13T11:48:50;22.77;;;10.10;;
74471;SDS011;62920;53.572;10.050;2022-12-13T11:51:21;24.25;;;10.05;;
74471;SDS011;62920;53.572;10.050;2022-12-13T11:54:01;29.00;;;10.52;;
74471;SDS011;62920;53.572;10.050;2022-12-13T11:56:32;31.80;;;11.55;;
74471;SDS011;62920;53.572;10.050;2022-12-13T11:59:06;21.52;;;8.77;;
74471;SDS011;62920;53.572;10.050;2022-12-13T12:01:40;23.92;;;9.27;;
74471;SDS011;62920;53.572;10.050;2022-12-13T12:04:22;21.00;;;9.05;;
74471;SDS011;62920;53.572;10.050;2022-12-13T12:06:58;21.17;;;9.98;;
74471;SDS011;62920;53.572;10.050;2022-12-13T12:14:41;20.73;;;8.80;;
74471;SDS011;62920;53.572;10.050;2022-12-13T12:17:13;19.20;;;7.70;;
74471;SDS011;62920;53.572;10.050;2022-12-13T12:19:40;26.73;;;9.20;;
74471;SDS011;62920;53.572;10.050;2022-12-13T12:27:44;22.17;;;9.32;;
74471;SDS011;62920;53.572;10.050;2022-12-13T12:43:01;24.00;;;8.63;;
74471;SDS011;62920;53.572;10.050;2022-12-13T12:48:30;22.50;;;8.73;;
74471;SDS011;62920;53.572;10.050;2022-12-13T12:53:46;23.30;;;9.02;;
74471;SDS011;62920;53.572;10.050;2022-12-13T12:58:46;15.07;;;6.20;;
74471;SDS011;62920;53.572;10.050;2022-12-13T13:04:07;19.33;;;7.75;;
74471;SDS011;62920;53.572;10.050;2022-12-13T13:06:36;24.70;;;9.07;;
74471;SDS011;62920;53.572;10.050;2022-12-13T13:09:07;22.83;;;8.57;;
74471;SDS011;62920;53.572;10.050;2022-12-13T13:11:34;23.75;;;9.00;;
74471;SDS011;62920;53.572;10.050;2022-12-13T13:14:04;21.75;;;8.65;;
74471;SDS011;62920;53.572;10.050;2022-12-13T13:16:45;19.45;;;8.50;;
74471;SDS011;62920;53.572;10.050;2022-12-13T13:24:21;22.92;;;10.00;;
74471;SDS011;62920;53.572;10.050;2022-12-13T13:26:55;21.27;;;8.77;;
74471;SDS011;62920;53.572;10.050;2022-12-13T13:37:00;21.67;;;8.80;;
74471;SDS011;62920;53.572;10.050;2022-12-13T13:41:52;22.57;;;9.63;;
74471;SDS011;62920;53.572;10.050;2022-12-13T13:50:02;20.67;;;8.85;;
74471;SDS011;62920;53.572;10.050;2022-12-13T13:52:36;23.98;;;9.43;;
74471;SDS011;62920;53.572;10.050;2022-12-13T14:00:22;26.08;;;10.48;;
74471;SDS011;62920;53.572;10.050;2022-12-13T14:03:23;26.17;;;10.00;;
74471;SDS011;62920;53.572;10.050;2022-12-13T14:25:43;25.15;;;10.93;;
74471;SDS011;62920;53.572;10.050;2022-12-13T14:29:00;25.80;;;10.77;;
74471;SDS011;62920;53.572;10.050;2022-12-13T14:33:45;23.42;;;9.55;;
74471;SDS011;62920;53.572;10.050;2022-12-13T14:36:13;27.73;;;10.73;;
74471;SDS011;62920;53.572;10.050;2022-12-13T14:38:40;26.85;;;11.90;;
74471;SDS011;62920;53.572;10.050;2022-12-13T14:41:12;26.45;;;10.57;;
74471;SDS011;62920;53.572;10.050;2022-12-13T14:43:40;27.83;;;11.02;;
74471;SDS011;62920;53.572;10.050;2022-12-13T14:46:06;27.77;;;11.82;;
74471;SDS011;62920;53.572;10.050;2022-12-13T14:48:36;28.75;;;11.52;;
74471;SDS011;62920;53.572;10.050;2022-12-13T14:51:29;25.73;;;11.70;;
74471;SDS011;62920;53.572;10.050;2022-12-13T14:53:56;28.58;;;10.88;;
74471;SDS011;62920;53.572;10.050;2022-12-13T14:56:22;28.15;;;11.45;;
74471;SDS011;62920;53.572;10.050;2022-12-13T14:58:55;24.55;;;10.60;;
74471;SDS011;62920;53.572;10.050;2022-12-13T15:03:53;32.00;;;11.75;;
74471;SDS011;62920;53.572;10.050;2022-12-13T15:06:19;25.05;;;11.02;;
74471;SDS011;62920;53.572;10.050;2022-12-13T15:08:45;25.35;;;11.23;;
74471;SDS011;62920;53.572;10.050;2022-12-13T15:11:11;25.65;;;11.68;;
74471;SDS011;62920;53.572;10.050;2022-12-13T15:13:41;25.73;;;11.27;;
74471;SDS011;62920;53.572;10.050;2022-12-13T15:16:26;30.58;;;11.15;;
74471;SDS011;62920;53.572;10.050;2022-12-13T15:21:55;28.40;;;12.25;;
74471;SDS011;62920;53.572;10.050;2022-12-13T15:26:52;27.85;;;12.57;;
74471;SDS011;62920;53.572;10.050;2022-12-13T15:29:19;33.40;;;13.90;;
74471;SDS011;62920;53.572;10.050;2022-12-13T15:31:45;32.15;;;13.43;;
74471;SDS011;62920;53.572;10.050;2022-12-13T15:36:54;35.33;;;14.52;;
74471;SDS011;62920;53.572;10.050;2022-12-13T15:39:20;29.70;;;12.90;;
74471;SDS011;62920;53.572;10.050;2022-12-13T15:44:23;32.38;;;13.75;;
74471;SDS011;62920;53.572;10.050;2022-12-13T15:46:51;31.83;;;13.50;;
74471;SDS011;62920;53.572;10.050;2022-12-13T15:51:53;30.77;;;13.32;;
74471;SDS011;62920;53.572;10.050;2022-12-13T15:54:20;33.33;;;14.23;;
74471;SDS011;62920;53.572;10.050;2022-12-13T15:56:59;42.35;;;15.45;;
74471;SDS011;62920;53.572;10.050;2022-12-13T15:59:45;34.17;;;14.45;;
74471;SDS011;62920;53.572;10.050;2022-12-13T16:02:21;37.67;;;16.13;;
74471;SDS011;62920;53.572;10.050;2022-12-13T16:04:48;35.08;;;14.70;;
74471;SDS011;62920;53.572;10.050;2022-12-13T16:07:25;35.90;;;14.48;;
74471;SDS011;62920;53.572;10.050;2022-12-13T16:09:53;33.58;;;13.80;;
74471;SDS011;62920;53.572;10.050;2022-12-13T16:12:23;32.95;;;14.10;;
74471;SDS011;62920;53.572;10.050;2022-12-13T16:14:54;34.38;;;14.00;;
74471;SDS011;62920;53.572;10.050;2022-12-13T16:17:54;30.52;;;12.88;;
74471;SDS011;62920;53.572;10.050;2022-12-13T16:20:31;36.25;;;14.95;;
74471;SDS011;62920;53.572;10.050;2022-12-13T16:22:56;37.08;;;15.20;;
74471;SDS011;62920;53.572;10.050;2022-12-13T16:25:22;35.15;;;13.02;;
74471;SDS011;62920;53.572;10.050;2022-12-13T16:27:47;38.15;;;15.57;;
74471;SDS011;62920;53.572;10.050;2022-12-13T16:32:38;38.08;;;14.85;;
74471;SDS011;62920;53.572;10.050;2022-12-13T16:35:04;43.13;;;15.15;;
74471;SDS011;62920;53.572;10.050;2022-12-13T16:37:29;33.78;;;13.63;;
74471;SDS011;62920;53.572;10.050;2022-12-13T16:39:55;37.80;;;14.60;;
74471;SDS011;62920;53.572;10.050;2022-12-13T16:42:21;39.35;;;15.50;;
74471;SDS011;62920;53.572;10.050;2022-12-13T16:44:47;36.10;;;14.32;;
74471;SDS011;62920;53.572;10.050;2022-12-13T16:47:13;34.22;;;14.07;;
74471;SDS011;62920;53.572;10.050;2022-12-13T16:49:38;34.85;;;14.45;;
74471;SDS011;62920;53.572;10.050;2022-12-13T16:52:04;36.58;;;13.90;;